Have a Safe July 4th! 

Flight Track Log - Related Links

Times and Time Zones

All times are in EDT time to prevent confusion due to time zone crossing. See the FLG3735 flight status page for this flight to view local times or setup timezone preferences in your user account.

Time Position Orientation Groundspeed Altitude Reporting Facility
EDT Latitude Longitude Course Direction KTS MPH feet Rate Location/Type
Thu 10:21:35 PM 42.2314 -83.3314 26° Northeast 151 174 1,400  Level Cleveland Center
Thu 10:22:42 PM 42.2800 -83.2997 26° Northeast 194 223 3,700 2,016 Climbing Cleveland Center
Thu 10:23:43 PM 42.3314 -83.2458 38° Northeast 256 295 5,700 2,331 Climbing Cleveland Center
Thu 10:24:43 PM 42.3419 -83.1481 82° East 281 323 8,400 1,955 Climbing Cleveland Center
Thu 10:25:55 PM 42.3386 -83.0103 92° East 311 358 10,000 727 Climbing Cleveland Center
Thu 10:26:55 PM 42.3372 -82.8808 91° East 324 373 10,000 200 Level Cleveland Center
Thu 10:27:55 PM 42.3350 -82.7742 92° East 336 387 10,400 1,350 Climbing Cleveland Center
Thu 10:28:55 PM 42.3403 -82.6114 87° East 352 405 12,700 2,150 Climbing Cleveland Center
Thu 10:29:55 PM 42.3611 -82.4800 78° East 357 411 14,700 1,750 Climbing Cleveland Center
Thu 10:30:55 PM 42.3592 -82.3422 91° East 357 411 16,200 1,400 Climbing Cleveland Center
Thu 10:31:55 PM 42.3550 -82.1989 92° East 363 418 17,500 1,200 Climbing Cleveland Center
Thu 10:32:55 PM 42.3506 -82.0722 93° East 375 432 18,600 750 Climbing Cleveland Center
Thu 10:33:55 PM 42.3439 -81.9231 93° East 392 451 19,000 250 Climbing Cleveland Center
Thu 10:34:55 PM 42.3372 -81.7714 93° East 398 458 19,100 850 Climbing Cleveland Center
Thu 10:35:55 PM 42.3306 -81.6222 93° East 398 458 20,700 1,000 Climbing Cleveland Center
Thu 10:36:55 PM 42.3233 -81.4678 94° East 405 466 21,100 950 Climbing Cleveland Center
Thu 10:37:55 PM 42.3161 -81.2992 93° East 411 473 22,600 1,300 Climbing Cleveland Center
Thu 10:38:55 PM 42.3086 -81.1475 94° East 406 467 23,700 1,050 Climbing Cleveland Center
Thu 10:39:55 PM 42.3011 -80.9958 94° East 406 467 24,700 900 Climbing Cleveland Center
Thu 10:40:55 PM 42.2911 -80.8442 95° East 406 467 25,500 650 Climbing Cleveland Center
Thu 10:41:55 PM 42.2831 -80.6869 94° East 406 467 26,000 500 Climbing Cleveland Center
Thu 10:42:55 PM 42.2747 -80.5269 94° East 411 473 26,500 550 Climbing Cleveland Center
Thu 10:43:55 PM 42.2683 -80.3672 93° East 423 487 27,100 550 Climbing Cleveland Center
Thu 10:44:55 PM 42.2719 -80.2044 88° East 423 487 27,600 450 Climbing Cleveland Center
Thu 10:45:55 PM 42.2839 -80.0556 84° East 428 493 28,000 450 Climbing Cleveland Center
Thu 10:46:55 PM 42.3039 -79.8814 81° East 428 493 28,500 500 Climbing Cleveland Center
Thu 10:47:55 PM 42.3194 -79.7211 82° East 428 493 29,000 250 Climbing Cleveland Center
Thu 10:48:55 PM 42.3350 -79.5692 82° East 433 498 29,000  Level Cleveland Center
Thu 10:49:55 PM 42.3500 -79.4003 83° East 444 511 29,000  Level Cleveland Center
Thu 10:50:55 PM 42.3667 -79.2258 83° East 456 525 29,000  Level Cleveland Center
Thu 10:51:55 PM 42.3833 -79.0511 83° East 462 532 29,000  Level Cleveland Center
Thu 10:52:55 PM 42.4019 -78.8819 81° East 462 532 29,000  Level Cleveland Center
Thu 10:53:55 PM 42.4158 -78.7044 84° East 468 539 29,000  Level Cleveland Center
Thu 10:54:55 PM 42.4314 -78.5267 83° East 468 539 29,000  Level Cleveland Center
Thu 10:55:55 PM 42.4469 -78.3517 83° East 468 539 29,000  Level Cleveland Center
Thu 10:56:55 PM 42.4642 -78.1711 83° East 468 539 29,000  Level Cleveland Center
Thu 10:57:55 PM 42.4769 -77.9931 84° East 468 539 29,000  Level Cleveland Center
Thu 10:58:55 PM 42.4911 -77.7983 84° East 468 539 29,000 -50 Level Cleveland Center
Thu 10:59:55 PM 42.5061 -77.6369 83° East 468 539 28,900  Descending Cleveland Center
Thu 11:00:55 PM 42.5222 -77.4589 83° East 473 544 29,000 37 Climbing Cleveland Center
Thu 11:02:39 PM 42.5411 -77.1836 85° East 459 528 29,000  Level Boston Center
Thu 11:03:39 PM 42.5544 -77.0069 84° East 464 534 29,000  Level Boston Center
Thu 11:04:39 PM 42.5714 -76.7908 84° East 475 547 29,000  Level Boston Center
Thu 11:05:39 PM 42.5844 -76.6114 84° East 480 552 29,000  Level Boston Center
Thu 11:06:39 PM 42.5972 -76.4286 85° East 480 552 29,000  Level Boston Center
Thu 11:07:39 PM 42.6072 -76.2544 85° East 475 547 29,000  Level Boston Center
Thu 11:08:39 PM 42.6219 -76.0606 84° East 475 547 29,000 -750 Level Boston Center
Thu 11:09:39 PM 42.6314 -75.8975 85° East 475 547 27,500 -1,800 Descending Boston Center
Thu 11:10:39 PM 42.6450 -75.7147 84° East 481 554 25,400 -2,100 Descending Boston Center
Thu 11:11:39 PM 42.6542 -75.5344 86° East 481 554 23,300 -2,100 Descending Boston Center
Thu 11:12:39 PM 42.6650 -75.3597 85° East 471 542 21,200 -2,100 Descending Boston Center
Thu 11:13:39 PM 42.6758 -75.1853 85° East 466 536 19,100 -2,200 Descending Boston Center
Thu 11:14:39 PM 42.6836 -75.0217 86° East 453 521 16,800 -2,351 Descending Boston Center
Thu 11:15:16 PM 42.6903 -74.9147 85° East 410 472 15,300 -2,250 Descending Boston Center
Thu 11:15:35 PM 42.6933 -74.8667 85° East 398 458 14,700 -1,890 Descending Boston Center
Thu 11:16:29 PM 42.7003 -74.7342 86° East 379 436 13,000 -1,670 Descending Boston Center
Thu 11:17:30 PM 42.7072 -74.5958 86° East 366 421 11,500 -1,292 Descending Boston Center
Thu 11:18:39 PM 42.7139 -74.4550 86° East 348 400 10,200 -1,190 Descending Boston Center
Thu 11:19:31 PM 42.7219 -74.3506 84° East 260 299 9,100 -1,487 Descending Boston Center
Thu 11:20:32 PM 42.7278 -74.2519 85° East 255 293 7,400 -1,686 Descending Boston Center
Thu 11:21:32 PM 42.7314 -74.1586 87° East 247 284 5,700 -1,587 Descending Boston Center
Thu 11:22:33 PM 42.6992 -74.0842 120° Southeast 238 274 4,200 -1,134 Descending Boston Center
Thu 11:23:39 PM 42.6478 -74.0181 137° Southeast 247 284 3,300 -429 Descending Boston Center
Thu 11:24:39 PM 42.5967 -73.9519 136° Southeast 235 270 3,300 -350 Level Boston Center
Thu 11:25:39 PM 42.5725 -73.8781 114° Southeast 232 267 2,600 -450 Descending Boston Center
Thu 11:26:39 PM 42.5922 -73.8164 67° East 182 209 2,400 -200 Descending Boston Center

Login

Don't have an account? Register now (free) for customized features, flight alerts, and more!